createdAt,value
2019-05-16T00:00:30.702Z,54.30
2019-05-16T00:02:58.865Z,54.90
2019-05-16T00:05:28.066Z,55.20
2019-05-16T00:07:58.684Z,55.10
2019-05-16T00:10:25.181Z,55.20
2019-05-16T00:12:52.717Z,56.00
2019-05-16T00:15:20.272Z,56.00
2019-05-16T00:17:48.786Z,56.00
2019-05-16T00:20:18.859Z,56.30
2019-05-16T00:22:48.206Z,55.50
2019-05-16T00:25:15.416Z,55.90
2019-05-16T00:27:42.952Z,56.00
2019-05-16T00:30:10.516Z,56.40
2019-05-16T00:32:38.994Z,56.50
2019-05-16T00:35:09.191Z,56.50
2019-05-16T00:37:38.798Z,57.10
2019-05-16T00:40:08.204Z,57.60
2019-05-16T00:42:36.017Z,57.50
2019-05-16T00:45:22.980Z,57.80
2019-05-16T00:47:50.517Z,58.20
2019-05-16T00:50:18.381Z,57.90
2019-05-16T00:52:48.511Z,57.90
2019-05-16T00:55:17.769Z,57.60
2019-05-16T00:58:04.125Z,57.90
2019-05-16T01:00:49.869Z,58.60
2019-05-16T01:03:16.640Z,58.50
2019-05-16T01:05:44.536Z,58.60
2019-05-16T01:08:12.316Z,58.70
2019-05-16T01:10:39.886Z,58.70
2019-05-16T01:13:07.952Z,58.40
2019-05-16T01:15:37.863Z,58.90
2019-05-16T01:18:05.096Z,59.30
2019-05-16T01:20:32.684Z,59.00
2019-05-16T01:23:00.232Z,59.50
2019-05-16T01:25:28.253Z,60.30
2019-05-16T01:27:58.149Z,60.20
2019-05-16T01:30:25.357Z,61.10
2019-05-16T01:32:52.889Z,61.20
2019-05-16T01:35:20.444Z,60.80
2019-05-16T01:37:48.757Z,61.00
2019-05-16T01:40:18.643Z,61.60
2019-05-16T01:42:45.879Z,61.70
2019-05-16T01:45:13.412Z,61.90
2019-05-16T01:47:41.240Z,62.10
2019-05-16T01:50:08.968Z,62.60
2019-05-16T01:52:38.294Z,62.80
2019-05-16T01:55:08.259Z,63.00
2019-05-16T01:57:35.491Z,63.70
2019-05-16T02:00:03.345Z,64.40
2019-05-16T02:02:31.136Z,63.50
2019-05-16T02:04:59.074Z,63.40
2019-05-16T02:07:28.344Z,63.00
2019-05-16T02:09:58.099Z,63.10
2019-05-16T02:12:27.609Z,63.20
2019-05-16T02:14:54.704Z,63.90
2019-05-16T02:17:22.268Z,64.00
2019-05-16T02:19:49.800Z,63.90
2019-05-16T02:22:17.923Z,64.80
2019-05-16T02:24:47.859Z,64.90
2019-05-16T02:27:14.956Z,64.50
2019-05-16T02:29:42.489Z,65.40
2019-05-16T02:32:31.274Z,65.00
2019-05-16T02:35:01.209Z,64.80
2019-05-16T02:37:30.812Z,64.50
2019-05-16T02:40:00.960Z,65.10
2019-05-16T02:42:26.577Z,65.10
2019-05-16T02:44:54.110Z,65.90
2019-05-16T02:47:21.753Z,65.70
2019-05-16T02:49:50.485Z,66.30
2019-05-16T02:52:21.553Z,65.90
2019-05-16T02:54:47.477Z,66.20
2019-05-16T02:57:15.058Z,66.50
2019-05-16T02:59:42.860Z,66.90
2019-05-16T03:02:11.418Z,67.30
2019-05-16T03:04:40.970Z,66.90
2019-05-16T03:07:11.447Z,67.20
2019-05-16T03:09:40.878Z,67.90
2019-05-16T03:12:07.087Z,67.40
2019-05-16T03:14:34.626Z,67.50
2019-05-16T03:17:03.457Z,67.20
2019-05-16T03:19:31.345Z,66.80
2019-05-16T03:22:01.141Z,66.80
2019-05-16T03:24:30.796Z,66.50
2019-05-16T03:26:57.451Z,66.80
2019-05-16T03:29:24.978Z,67.20
2019-05-16T03:31:54.594Z,67.00
2019-05-16T03:34:25.594Z,68.30
2019-05-16T03:36:54.302Z,67.70
2019-05-16T03:39:21.201Z,67.80
2019-05-16T03:41:50.732Z,68.00
2019-05-16T03:44:21.062Z,68.50
2019-05-16T03:46:47.789Z,68.90
2019-05-16T03:49:15.349Z,68.60
2019-05-16T03:51:42.905Z,69.30
2019-05-16T03:54:12.348Z,69.00
2019-05-16T03:56:40.824Z,69.10
2019-05-16T03:59:10.895Z,69.50
2019-05-16T04:01:40.656Z,69.10
2019-05-16T04:04:07.190Z,69.40
2019-05-16T04:06:34.725Z,69.70
2019-05-16T04:09:02.292Z,70.10
2019-05-16T04:11:32.191Z,70.20
2019-05-16T04:14:01.450Z,70.70
2019-05-16T04:16:31.053Z,70.20
2019-05-16T04:18:57.642Z,70.60
2019-05-16T04:21:25.169Z,70.50
2019-05-16T04:23:53.068Z,70.30
2019-05-16T04:26:21.651Z,70.10
2019-05-16T04:28:51.500Z,70.20
2019-05-16T04:31:22.071Z,70.00
2019-05-16T04:33:51.399Z,70.20
2019-05-16T04:36:17.477Z,70.20
2019-05-16T04:38:46.634Z,70.70
2019-05-16T04:41:14.293Z,70.80
2019-05-16T04:43:41.908Z,70.80
2019-05-16T04:46:11.649Z,70.40
2019-05-16T04:48:41.759Z,70.90
2019-05-16T04:51:10.592Z,70.60
2019-05-16T04:53:37.867Z,70.90
2019-05-16T04:56:05.433Z,71.30
2019-05-16T04:58:32.960Z,70.80
2019-05-16T05:01:01.545Z,70.90
2019-05-16T05:03:31.593Z,71.80
2019-05-16T05:06:01.267Z,71.40
2019-05-16T05:08:30.498Z,70.90
2019-05-16T05:10:57.520Z,72.30
2019-05-16T05:13:25.059Z,72.50
2019-05-16T05:15:52.645Z,73.20
2019-05-16T05:18:21.198Z,73.20
2019-05-16T05:20:52.320Z,73.20
2019-05-16T05:23:21.030Z,72.50
2019-05-16T05:25:50.956Z,72.30
2019-05-16T05:28:17.755Z,73.20
2019-05-16T05:30:46.165Z,73.20
2019-05-16T05:33:13.737Z,73.80
2019-05-16T05:35:41.272Z,75.10
2019-05-16T05:38:10.546Z,75.00
2019-05-16T05:40:40.398Z,73.30
2019-05-16T05:43:07.693Z,73.20
2019-05-16T05:45:35.225Z,73.10
2019-05-16T05:48:02.781Z,73.90
2019-05-16T05:50:30.709Z,74.20
2019-05-16T05:53:00.863Z,73.50
2019-05-16T05:55:27.605Z,72.10
2019-05-16T05:57:55.188Z,70.60
2019-05-16T06:00:42.409Z,71.60
2019-05-16T06:03:10.726Z,72.60
2019-05-16T06:05:41.112Z,72.50
2019-05-16T06:08:07.761Z,72.80
2019-05-16T06:10:35.308Z,70.90
2019-05-16T06:13:02.865Z,70.70
2019-05-16T06:15:30.686Z,69.30
2019-05-16T06:18:00.243Z,69.40
2019-05-16T06:20:27.989Z,69.20
2019-05-16T06:22:55.548Z,69.10
2019-05-16T06:25:23.499Z,68.40
2019-05-16T06:27:51.317Z,68.20
2019-05-16T06:30:21.371Z,67.80
2019-05-16T06:32:50.201Z,67.10
2019-05-16T06:35:20.117Z,67.60
2019-05-16T06:37:47.162Z,66.40
2019-05-16T06:40:15.007Z,66.70
2019-05-16T06:42:42.565Z,67.60
2019-05-16T06:45:10.608Z,67.60
2019-05-16T06:47:39.730Z,67.10
2019-05-16T06:50:11.046Z,66.80
2019-05-16T06:52:37.797Z,67.10
2019-05-16T06:55:06.433Z,66.30
2019-05-16T06:57:33.969Z,65.70
2019-05-16T07:00:01.559Z,65.80
2019-05-16T07:02:33.741Z,66.70
2019-05-16T07:05:00.933Z,65.10
2019-05-16T07:07:27.696Z,65.50
2019-05-16T07:10:00.747Z,64.50
2019-05-16T07:12:24.861Z,64.60
2019-05-16T07:14:52.469Z,65.40
2019-05-16T07:17:20.289Z,67.10
2019-05-16T07:19:50.235Z,66.70
2019-05-16T07:22:20.323Z,66.40
2019-05-16T07:24:46.677Z,67.60
2019-05-16T07:27:14.217Z,66.90
2019-05-16T07:29:41.805Z,66.10
2019-05-16T07:32:09.337Z,66.20
2019-05-16T07:34:36.912Z,66.50
2019-05-16T07:37:04.445Z,66.40
2019-05-16T07:39:32.009Z,66.40
2019-05-16T07:42:00.047Z,66.50
2019-05-16T07:44:30.751Z,66.50
2019-05-16T07:46:57.043Z,67.90
2019-05-16T07:49:24.612Z,67.90
2019-05-16T07:51:52.145Z,66.70
2019-05-16T07:54:21.361Z,65.90
2019-05-16T07:56:57.329Z,66.30
2019-05-16T07:59:20.367Z,65.20
2019-05-16T08:01:47.721Z,65.20
2019-05-16T08:04:15.297Z,66.40
2019-05-16T08:06:42.858Z,66.20
2019-05-16T08:09:12.673Z,66.20
2019-05-16T08:11:40.880Z,66.80
2019-05-16T08:14:10.202Z,67.10
2019-05-16T08:16:40.542Z,66.00
2019-05-16T08:19:10.120Z,65.60
2019-05-16T08:21:36.588Z,66.20
2019-05-16T08:24:07.493Z,66.20
2019-05-16T08:26:38.836Z,64.90
2019-05-16T08:29:02.763Z,64.50
2019-05-16T08:31:31.766Z,63.80
2019-05-16T08:34:00.908Z,64.40
2019-05-16T08:36:30.735Z,64.20
2019-05-16T08:39:01.102Z,63.90
2019-05-16T08:41:27.508Z,63.70
2019-05-16T08:43:55.045Z,61.90
2019-05-16T08:46:22.615Z,60.80
2019-05-16T08:50:06.253Z,62.30
2019-05-16T08:51:22.343Z,62.50
2019-05-16T08:53:50.467Z,62.80
2019-05-16T08:56:17.987Z,63.20
2019-05-16T08:58:45.516Z,61.60
2019-05-16T09:03:42.340Z,61.00
2019-05-16T09:08:39.185Z,60.30
2019-05-16T09:10:25.131Z,60.40
2019-05-16T09:11:26.951Z,61.70
2019-05-16T09:13:37.009Z,62.20
2019-05-16T09:16:07.488Z,61.30
2019-05-16T09:18:32.825Z,60.50
2019-05-16T09:18:40.723Z,61.20
2019-05-16T09:21:03.339Z,61.00
2019-05-16T09:23:30.891Z,60.50
2019-05-16T09:25:58.680Z,60.70
2019-05-16T09:28:28.290Z,59.80
2019-05-16T09:30:57.758Z,59.30
2019-05-16T09:33:26.970Z,61.90
2019-05-16T09:35:56.938Z,58.80
2019-05-16T09:38:23.873Z,59.50
2019-05-16T09:40:51.592Z,59.90
2019-05-16T09:43:19.207Z,60.70
2019-05-16T09:45:47.292Z,59.80
2019-05-16T09:48:18.482Z,59.90
2019-05-16T09:50:46.722Z,60.20
2019-05-16T09:53:13.760Z,58.50
2019-05-16T09:55:41.348Z,57.30
2019-05-16T09:58:08.937Z,58.30
2019-05-16T10:00:37.425Z,59.20
2019-05-16T10:03:07.179Z,58.80
2019-05-16T10:05:36.990Z,59.60
2019-05-16T10:08:23.456Z,59.40
2019-05-16T10:10:50.993Z,59.60
2019-05-16T10:13:18.584Z,60.50
2019-05-16T10:15:47.318Z,58.30
2019-05-16T10:18:16.901Z,60.00
2019-05-16T10:20:44.393Z,59.80
2019-05-16T10:23:14.898Z,59.50
2019-05-16T10:25:41.490Z,61.10
2019-05-16T10:28:09.154Z,61.70
2019-05-16T10:30:37.672Z,59.70
2019-05-16T10:33:07.056Z,60.10
2019-05-16T10:35:37.252Z,61.90
2019-05-16T10:38:04.032Z,60.10
2019-05-16T10:40:31.569Z,59.90
2019-05-16T10:42:59.128Z,60.20
2019-05-16T10:45:27.397Z,58.90
2019-05-16T10:47:55.408Z,58.10
2019-05-16T10:50:22.967Z,57.60
2019-05-16T10:53:12.893Z,57.70
2019-05-16T10:55:20.067Z,57.70
2019-05-16T10:57:48.123Z,57.60
2019-05-16T11:00:34.946Z,58.10
2019-05-16T11:02:45.244Z,57.00
2019-05-16T11:05:27.024Z,55.00
2019-05-16T11:07:43.377Z,56.90
2019-05-16T11:10:11.030Z,56.50
2019-05-16T11:12:50.400Z,57.00
2019-05-16T11:15:11.552Z,55.30
2019-05-16T11:17:37.366Z,55.30
2019-05-16T11:20:08.128Z,56.10
2019-05-16T11:22:37.070Z,55.00
2019-05-16T11:25:20.194Z,55.70
2019-05-16T11:27:37.313Z,55.70
2019-05-16T11:30:07.572Z,57.40
2019-05-16T11:32:37.484Z,58.30
2019-05-16T11:35:07.463Z,56.50
2019-05-16T11:37:37.461Z,56.20
2019-05-16T11:40:07.228Z,55.40
2019-05-16T11:42:37.534Z,55.70
2019-05-16T11:45:09.413Z,56.50
2019-05-16T11:47:36.770Z,56.60
2019-05-16T11:50:07.280Z,57.60
2019-05-16T11:52:34.468Z,59.40
2019-05-16T11:55:02.096Z,57.60
2019-05-16T11:57:29.848Z,59.00
2019-05-16T11:59:57.403Z,57.30
2019-05-16T12:02:27.964Z,57.20
2019-05-16T12:04:54.242Z,56.80
2019-05-16T12:07:21.815Z,56.10
2019-05-16T12:09:55.048Z,56.70
2019-05-16T12:12:20.747Z,55.00
2019-05-16T12:14:48.246Z,55.70
2019-05-16T12:17:16.634Z,56.00
2019-05-16T12:19:47.463Z,69.80
2019-05-16T12:22:13.885Z,81.60
2019-05-16T12:24:41.700Z,55.60
2019-05-16T12:27:09.368Z,58.30
2019-05-16T12:29:37.433Z,65.00
2019-05-16T12:32:07.705Z,66.50
2019-05-16T12:34:36.757Z,61.70
2019-05-16T12:37:03.912Z,55.60
2019-05-16T12:39:31.478Z,56.30
2019-05-16T12:42:00.177Z,62.00
2019-05-16T12:44:28.161Z,63.30
2019-05-16T12:46:56.928Z,57.80
2019-05-16T12:49:24.903Z,58.80
2019-05-16T12:51:52.476Z,59.60
2019-05-16T12:54:20.042Z,58.20
2019-05-16T12:56:48.171Z,54.20
2019-05-16T12:59:20.967Z,53.30
2019-05-16T13:01:47.974Z,55.30
2019-05-16T13:04:18.544Z,54.20
2019-05-16T13:06:43.993Z,54.10
2019-05-16T13:09:11.549Z,54.70
2019-05-16T13:11:39.099Z,55.10
2019-05-16T13:14:11.017Z,56.20
2019-05-16T13:16:37.559Z,57.10
2019-05-16T13:19:06.995Z,58.00
2019-05-16T13:21:34.757Z,58.10
2019-05-16T13:24:02.306Z,58.10
2019-05-16T13:26:30.202Z,57.90
2019-05-16T13:28:58.069Z,57.70
2019-05-16T13:31:28.595Z,56.60
2019-05-16T13:33:56.800Z,57.20
2019-05-16T13:36:24.184Z,55.30
2019-05-16T13:38:52.907Z,56.60
2019-05-16T13:41:20.681Z,57.10
2019-05-16T13:43:48.222Z,58.30
2019-05-16T13:46:17.176Z,56.40
2019-05-16T13:48:44.920Z,53.90
2019-05-16T13:51:15.888Z,54.40
2019-05-16T13:53:41.813Z,54.20
2019-05-16T13:56:12.984Z,52.20
2019-05-16T13:58:38.683Z,54.30
2019-05-16T14:01:07.940Z,54.40
2019-05-16T14:03:37.411Z,54.90
2019-05-16T14:06:07.208Z,55.30
2019-05-16T14:08:34.261Z,56.50
2019-05-16T14:11:02.523Z,54.40
2019-05-16T14:13:30.592Z,54.60
2019-05-16T14:15:58.172Z,54.50
2019-05-16T14:18:27.219Z,53.90
2019-05-16T14:20:57.331Z,53.00
2019-05-16T14:23:24.649Z,54.50
2019-05-16T14:25:53.562Z,54.00
2019-05-16T14:28:21.132Z,54.10
2019-05-16T14:30:48.666Z,53.80
2019-05-16T14:33:17.248Z,54.70
2019-05-16T14:35:46.993Z,55.50
2019-05-16T14:38:14.165Z,54.50
2019-05-16T14:40:42.060Z,55.40
2019-05-16T14:43:09.628Z,54.80
2019-05-16T14:45:37.361Z,55.10
2019-05-16T14:48:07.560Z,54.20
2019-05-16T14:50:37.270Z,55.40
2019-05-16T14:53:04.077Z,58.20
2019-05-16T14:55:31.941Z,56.90
2019-05-16T14:57:59.496Z,54.70
2019-05-16T15:00:27.755Z,54.90
2019-05-16T15:02:56.634Z,56.40
2019-05-16T15:05:24.740Z,55.10
2019-05-16T15:07:52.316Z,55.20
2019-05-16T15:10:19.859Z,54.20
2019-05-16T15:12:47.490Z,55.30
2019-05-16T15:15:21.088Z,55.70
2019-05-16T15:17:47.349Z,54.80
2019-05-16T15:20:18.006Z,56.00
2019-05-16T15:22:47.085Z,56.10
2019-05-16T15:25:13.702Z,57.40
2019-05-16T15:27:41.256Z,56.30
2019-05-16T15:30:08.914Z,55.70
2019-05-16T15:32:38.547Z,55.50
2019-05-16T15:35:07.408Z,57.50
2019-05-16T15:37:37.269Z,56.20
2019-05-16T15:40:07.236Z,56.00
2019-05-16T15:42:37.014Z,56.20
2019-05-16T15:45:06.817Z,57.00
2019-05-16T15:47:34.056Z,55.90
2019-05-16T15:50:01.653Z,56.30
2019-05-16T15:52:30.021Z,56.20
2019-05-16T15:54:57.650Z,57.20
2019-05-16T15:57:26.918Z,56.40
2019-05-16T15:59:57.464Z,56.20
2019-05-16T16:02:27.062Z,56.10
2019-05-16T16:04:53.612Z,56.60
2019-05-16T16:07:21.153Z,56.90
2019-05-16T16:09:49.044Z,56.00
2019-05-16T16:12:17.157Z,55.40
2019-05-16T16:14:46.703Z,56.20
2019-05-16T16:17:17.441Z,56.60
2019-05-16T16:19:46.772Z,56.10
2019-05-16T16:22:13.651Z,58.30
2019-05-16T16:24:41.184Z,55.80
2019-05-16T16:27:08.771Z,56.80
2019-05-16T16:29:36.829Z,56.20
2019-05-16T16:32:06.458Z,56.20
2019-05-16T16:34:36.571Z,57.60
2019-05-16T16:37:03.489Z,56.70
2019-05-16T16:39:31.031Z,57.30
2019-05-16T16:41:58.603Z,57.70
2019-05-16T16:44:27.520Z,57.00
2019-05-16T16:46:57.290Z,58.80
2019-05-16T16:49:24.693Z,57.50
2019-05-16T16:51:52.266Z,58.30
2019-05-16T16:54:19.821Z,57.10
2019-05-16T16:56:47.523Z,57.00
2019-05-16T16:59:17.267Z,57.80
2019-05-16T17:01:46.538Z,58.50
2019-05-16T17:04:13.928Z,58.40
2019-05-16T17:06:41.492Z,57.70
2019-05-16T17:09:09.049Z,57.40
2019-05-16T17:11:37.110Z,57.10
2019-05-16T17:14:06.845Z,58.10
2019-05-16T17:16:34.279Z,57.80
2019-05-16T17:19:02.082Z,57.00
2019-05-16T17:21:29.642Z,58.10
2019-05-16T17:23:57.174Z,59.80
2019-05-16T17:26:27.225Z,58.90
2019-05-16T17:28:54.014Z,58.10
2019-05-16T17:31:21.619Z,59.00
2019-05-16T17:33:49.179Z,58.30
2019-05-16T17:36:17.208Z,58.80
2019-05-16T17:38:46.600Z,58.70
2019-05-16T17:41:16.633Z,58.80
2019-05-16T17:43:43.549Z,58.90
2019-05-16T17:46:11.083Z,59.60
2019-05-16T17:48:38.671Z,59.50
2019-05-16T17:51:06.236Z,59.30
2019-05-16T17:53:33.805Z,60.30
2019-05-16T17:56:01.646Z,59.30
2019-05-16T17:58:29.233Z,59.30
2019-05-16T18:01:00.053Z,59.70
2019-05-16T18:03:26.499Z,60.30
2019-05-16T18:05:54.176Z,60.00
2019-05-16T18:08:22.078Z,61.20
2019-05-16T18:10:49.613Z,60.40
2019-05-16T18:13:17.188Z,60.20
2019-05-16T18:15:47.145Z,60.40
2019-05-16T18:18:14.020Z,61.50
2019-05-16T18:20:54.757Z,60.70
2019-05-16T18:23:10.880Z,62.50
2019-05-16T18:25:38.420Z,60.50
2019-05-16T18:28:07.724Z,61.30
2019-05-16T18:30:36.686Z,62.30
2019-05-16T18:33:06.954Z,61.40
2019-05-16T18:35:34.008Z,63.10
2019-05-16T18:38:01.549Z,63.20
2019-05-16T18:40:29.128Z,63.50
2019-05-16T18:42:57.769Z,63.80
2019-05-16T18:45:27.021Z,63.10
2019-05-16T18:47:56.311Z,62.50
2019-05-16T18:50:26.454Z,63.40
2019-05-16T18:52:53.305Z,61.80
2019-05-16T18:55:20.888Z,62.30
2019-05-16T18:57:48.404Z,61.80
2019-05-16T19:00:17.830Z,63.30
2019-05-16T19:02:47.677Z,62.40
2019-05-16T19:05:17.042Z,61.80
2019-05-16T19:07:43.933Z,61.20
2019-05-16T19:10:11.524Z,61.60
2019-05-16T19:12:39.060Z,62.50
2019-05-16T19:15:07.333Z,63.10
2019-05-16T19:17:35.011Z,61.90
2019-05-16T19:20:02.588Z,61.90
2019-05-16T19:22:30.125Z,63.10
2019-05-16T19:24:57.701Z,62.20
2019-05-16T19:27:26.232Z,63.40
2019-05-16T19:29:53.893Z,62.10
2019-05-16T19:32:21.435Z,64.30
2019-05-16T19:34:49.210Z,63.20
2019-05-16T19:37:16.929Z,62.40
2019-05-16T19:39:46.269Z,62.90
2019-05-16T19:42:14.016Z,62.60
2019-05-16T19:44:41.591Z,62.80
2019-05-16T19:47:09.121Z,63.30
2019-05-16T19:49:37.063Z,64.40
2019-05-16T19:52:07.053Z,63.90
2019-05-16T19:54:36.341Z,64.90
2019-05-16T19:57:03.621Z,64.40
2019-05-16T19:59:31.180Z,64.90
2019-05-16T20:01:58.717Z,65.00
2019-05-16T20:04:27.369Z,64.60
2019-05-16T20:06:56.675Z,65.80
2019-05-16T20:09:26.726Z,65.30
2019-05-16T20:11:53.692Z,65.70
2019-05-16T20:14:21.227Z,65.50
2019-05-16T20:16:48.785Z,66.00
2019-05-16T20:19:16.323Z,66.90
2019-05-16T20:21:43.880Z,66.10
2019-05-16T20:24:11.415Z,66.60
2019-05-16T20:26:39.341Z,65.80
2019-05-16T20:29:07.680Z,66.40
2019-05-16T20:31:36.823Z,65.80
2019-05-16T20:34:09.090Z,65.40
2019-05-16T20:36:33.872Z,66.20
2019-05-16T20:39:01.408Z,67.40
2019-05-16T20:41:28.992Z,65.50
2019-05-16T20:43:57.151Z,67.20
2019-05-16T20:46:24.893Z,66.90
2019-05-16T20:48:52.425Z,65.00
2019-05-16T20:51:20.358Z,66.70
2019-05-16T20:53:49.754Z,66.70
2019-05-16T20:56:17.361Z,65.40
2019-05-16T20:58:46.763Z,66.10
2019-05-16T21:01:14.204Z,65.80
2019-05-16T21:03:41.825Z,66.10
2019-05-16T21:06:09.402Z,66.20
2019-05-16T21:08:37.176Z,67.40
2019-05-16T21:11:06.517Z,65.90
2019-05-16T21:13:34.366Z,66.40
2019-05-16T21:16:01.925Z,66.00
2019-05-16T21:18:29.465Z,67.10
2019-05-16T21:20:57.479Z,65.70
2019-05-16T21:23:27.450Z,67.20
2019-05-16T21:25:54.458Z,67.70
2019-05-16T21:28:21.999Z,68.40
2019-05-16T21:30:49.561Z,67.60
2019-05-16T21:33:18.598Z,67.30
2019-05-16T21:35:46.972Z,67.80
2019-05-16T21:38:16.531Z,68.70
2019-05-16T21:40:44.189Z,67.50
2019-05-16T21:43:11.960Z,66.50
2019-05-16T21:45:39.524Z,68.30
2019-05-16T21:48:27.711Z,66.80
2019-05-16T21:50:56.981Z,67.60
2019-05-16T21:53:27.166Z,68.80
2019-05-16T21:55:56.262Z,68.70
2019-05-16T21:58:23.257Z,68.20
2019-05-16T22:00:52.672Z,68.40
2019-05-16T22:03:20.241Z,68.20
2019-05-16T22:05:48.133Z,68.70
2019-05-16T22:08:16.799Z,68.90
2019-05-16T22:10:46.526Z,68.10
2019-05-16T22:13:14.197Z,68.40
2019-05-16T22:15:41.732Z,69.00
2019-05-16T22:18:09.300Z,68.50
2019-05-16T22:20:36.841Z,69.40
2019-05-16T22:23:06.794Z,68.40
2019-05-16T22:25:33.663Z,68.60
2019-05-16T22:28:01.225Z,70.00
2019-05-16T22:30:28.760Z,68.60
2019-05-16T22:32:56.324Z,68.80
2019-05-16T22:35:24.069Z,68.60
2019-05-16T22:37:55.474Z,69.60
2019-05-16T22:40:20.883Z,69.70
2019-05-16T22:42:48.501Z,69.30
2019-05-16T22:45:17.778Z,69.00
2019-05-16T22:47:46.700Z,69.20
2019-05-16T22:50:14.397Z,68.90
2019-05-16T22:52:41.984Z,69.50
2019-05-16T22:55:09.517Z,71.10
2019-05-16T22:57:37.132Z,71.40
2019-05-16T23:00:09.371Z,71.30
2019-05-16T23:02:56.713Z,71.10
2019-05-16T23:05:24.376Z,71.20
2019-05-16T23:08:02.935Z,71.10
2019-05-16T23:10:21.229Z,71.40
2019-05-16T23:12:48.788Z,71.60
2019-05-16T23:15:17.099Z,70.70
2019-05-16T23:17:46.618Z,71.10
2019-05-16T23:20:16.892Z,70.40
2019-05-16T23:22:43.651Z,70.70
2019-05-16T23:25:11.213Z,72.50
2019-05-16T23:27:38.752Z,71.70
2019-05-16T23:30:07.446Z,71.50
2019-05-16T23:32:36.484Z,71.40
2019-05-16T23:35:06.872Z,71.30
2019-05-16T23:37:36.794Z,72.70
2019-05-16T23:40:06.364Z,71.50
2019-05-16T23:42:33.652Z,71.80
2019-05-16T23:45:01.228Z,71.90
2019-05-16T23:47:28.752Z,71.60
2019-05-16T23:49:56.826Z,72.00
2019-05-16T23:52:24.529Z,71.20
2019-05-16T23:54:52.093Z,70.40
2019-05-16T23:57:19.636Z,71.40
2019-05-16T23:59:47.400Z,70.60
